Time;durP1;ratioP1;P1;durP2;ratioP2;P2;SDS_P1;SDS_P2;PMS_P1;PMS_P2;Temp;Humidity;BMP_temperature;BMP_pressure;BME280_temperature;BME280_humidity;BME280_pressure;Samples;Min_cycle;Max_cycle;Signal;HPM_P1;HPM_P2
2023/06/25 00:07:46;;;;;;;11.00;7.90;;;;;;;16.63;65.64;100684.25;30490428;28;98404;-68
2023/06/25 00:22:47;;;;;;;11.70;8.65;;;;;;;16.33;66.44;100681.78;30489243;28;97467;-71
2023/06/25 00:37:47;;;;;;;13.23;8.57;;;;;;;16.11;67.37;100683.69;30489249;28;97588;-72
2023/06/25 00:52:52;;;;;;;13.50;8.40;;;;;;;15.98;67.86;100671.81;30497901;28;109404;-71
2023/06/25 01:07:53;;;;;;;13.30;9.30;;;;;;;15.83;68.58;100676.44;30505624;28;96716;-69
2023/06/25 01:22:55;;;;;;;14.10;9.27;;;;;;;15.55;69.21;100664.59;30505709;28;97428;-69
2023/06/25 01:37:56;;;;;;;13.13;9.63;;;;;;;15.48;69.95;100654.81;30504563;28;96887;-69
2023/06/25 01:52:56;;;;;;;13.50;9.23;;;;;;;15.39;70.68;100648.69;30502903;28;96792;-72
2023/06/25 02:07:56;;;;;;;13.27;9.13;;;;;;;15.29;70.52;100650.88;30500661;28;97867;-72
2023/06/25 02:22:57;;;;;;;14.90;10.15;;;;;;;15.10;71.32;100647.78;30500062;28;96726;-72
2023/06/25 02:37:57;;;;;;;14.98;10.10;;;;;;;15.00;71.61;100636.53;30498144;28;103224;-68
2023/06/25 02:52:59;;;;;;;15.18;9.88;;;;;;;14.95;72.04;100633.56;30497053;28;96703;-68
2023/06/25 03:07:59;;;;;;;15.73;8.90;;;;;;;15.12;72.47;100634.16;30493276;28;96804;-68
2023/06/25 03:22:59;;;;;;;13.38;9.57;;;;;;;15.29;72.06;100626.72;30494554;28;96748;-68
2023/06/25 03:38:00;;;;;;;14.98;9.13;;;;;;;15.27;72.16;100628.75;30492506;28;96903;-68
2023/06/25 03:53:00;;;;;;;12.48;8.90;;;;;;;15.50;71.91;100626.75;30473862;28;96720;-68
2023/06/25 04:08:01;;;;;;;11.65;8.60;;;;;;;15.73;71.96;100625.69;30489870;28;97464;-69
2023/06/25 04:23:01;;;;;;;12.25;9.23;;;;;;;15.99;71.77;100621.59;30492373;28;96827;-69
2023/06/25 04:38:02;;;;;;;13.88;8.77;;;;;;;16.36;71.59;100635.69;30508296;28;96696;-71
2023/06/25 04:53:02;;;;;;;11.32;7.50;;;;;;;16.76;70.61;100638.59;30504180;28;96753;-69
2023/06/25 05:08:03;;;;;;;10.40;8.20;;;;;;;17.16;69.80;100628.00;30486164;28;111529;-68
2023/06/25 05:23:05;;;;;;;14.27;7.83;;;;;;;17.73;69.17;100630.38;30502572;28;97763;-72
2023/06/25 05:38:05;;;;;;;;;;;;;;;18.39;67.17;100639.47;30501659;28;97336;-68
2023/06/25 05:53:05;;;;;;;9.27;6.45;;;;;;;19.11;65.28;100631.34;30501075;28;96789;-68
2023/06/25 06:08:06;;;;;;;10.65;7.07;;;;;;;19.72;63.01;100627.19;30498489;28;96975;-71
2023/06/25 06:23:06;;;;;;;12.27;6.80;;;;;;;20.39;60.78;100633.88;30498310;28;96754;-69
2023/06/25 06:38:06;;;;;;;7.33;5.20;;;;;;;21.35;57.94;100647.72;30497553;28;97066;-71
2023/06/25 06:53:07;;;;;;;6.07;3.33;;;;;;;22.22;55.11;100632.75;30495355;28;97290;-69
2023/06/25 07:08:07;;;;;;;4.63;3.15;;;;;;;23.25;50.97;100624.03;30493795;28;97204;-69
2023/06/25 07:23:07;;;;;;;4.78;3.78;;;;;;;24.20;45.67;100623.41;30491858;28;97424;-69
2023/06/25 07:38:08;;;;;;;4.13;2.65;;;;;;;24.82;41.77;100613.31;30490160;28;111900;-70
2023/06/25 07:53:08;;;;;;;5.00;2.85;;;;;;;25.65;39.13;100612.22;30490170;28;102293;-73
2023/06/25 08:08:08;;;;;;;4.72;3.10;;;;;;;26.32;37.63;100610.78;30507218;28;97635;-72
2023/06/25 08:23:08;;;;;;;6.10;2.83;;;;;;;27.84;35.81;100600.72;30508292;28;111063;-71
2023/06/25 08:38:10;;;;;;;6.03;2.72;;;;;;;30.07;32.77;100595.59;30506834;28;98145;-70
2023/06/25 08:53:10;;;;;;;5.20;3.13;;;;;;;31.58;29.64;100583.06;30505220;28;96746;-72
2023/06/25 09:08:14;;;;;;;4.47;2.70;;;;;;;32.25;28.98;100587.38;30503426;28;96826;-71
2023/06/25 09:23:22;;;;;;;3.90;2.77;;;;;;;32.84;27.77;100593.00;30502658;28;97015;-73
2023/06/25 09:38:24;;;;;;;4.43;2.90;;;;;;;33.91;26.32;100585.16;30502044;28;97667;-71
2023/06/25 09:53:27;;;;;;;4.63;2.67;;;;;;;33.74;26.46;100578.38;30500324;28;112308;-71
2023/06/25 10:08:28;;;;;;;4.33;2.77;;;;;;;33.86;25.45;100568.72;30498437;28;96873;-71
2023/06/25 10:23:30;;;;;;;3.95;2.97;;;;;;;35.66;23.54;100554.84;30497057;28;96741;-74
2023/06/25 10:38:30;;;;;;;7.67;2.87;;;;;;;35.66;22.24;100540.97;30480568;28;96810;-73
2023/06/25 10:53:30;;;;;;;4.18;2.60;;;;;;;35.25;23.67;100534.06;30495755;28;96662;-71
2023/06/25 11:08:31;;;;;;;3.80;2.65;;;;;;;33.43;24.27;100517.63;30493169;28;99473;-71
2023/06/25 11:23:31;;;;;;;5.13;2.78;;;;;;;32.11;25.78;100506.59;30491466;28;96737;-71
2023/06/25 11:38:31;;;;;;;3.78;2.60;;;;;;;32.33;25.91;100486.63;30489331;28;96760;-74
2023/06/25 11:53:32;;;;;;;4.05;2.45;;;;;;;31.82;26.27;100481.03;30490035;28;97312;-74
2023/06/25 12:08:33;;;;;;;4.20;2.80;;;;;;;31.92;25.74;100474.50;30488973;28;96919;-74
2023/06/25 12:23:33;;;;;;;4.20;2.95;;;;;;;31.59;25.30;100447.06;30489187;28;108350;-73
2023/06/25 12:38:33;;;;;;;4.43;2.55;;;;;;;31.99;26.06;100438.28;30487004;28;97364;-73
2023/06/25 12:53:34;;;;;;;4.65;2.22;;;;;;;31.67;26.95;100440.03;30503007;28;97413;-73
2023/06/25 13:08:34;;;;;;;4.20;2.47;;;;;;;31.49;26.70;100431.53;30505424;28;97176;-72
2023/06/25 13:23:37;;;;;;;7.43;3.00;;;;;;;30.80;27.33;100420.41;30504292;28;96819;-71
2023/06/25 13:38:37;;;;;;;4.83;2.23;;;;;;;30.36;27.82;100400.44;30502667;28;97412;-72
2023/06/25 13:53:37;;;;;;;4.05;2.55;;;;;;;30.35;27.85;100396.06;30500592;28;101010;-72
2023/06/25 14:08:38;;;;;;;4.38;2.45;;;;;;;30.07;27.60;100375.88;30499470;28;97786;-71
2023/06/25 14:23:38;;;;;;;5.18;2.45;;;;;;;29.99;27.92;100360.88;30498152;28;97135;-73
2023/06/25 14:38:41;;;;;;;3.95;2.30;;;;;;;29.37;28.53;100353.41;30496156;28;97049;-72
2023/06/25 14:53:41;;;;;;;4.53;2.50;;;;;;;28.83;29.16;100355.34;30494585;28;96879;-69
2023/06/25 15:08:42;;;;;;;6.20;2.60;;;;;;;28.22;29.84;100351.97;30493054;28;104242;-73
2023/06/25 15:23:43;;;;;;;4.10;2.50;;;;;;;28.39;30.07;100335.13;30492932;28;96785;-69
2023/06/25 15:38:43;;;;;;;4.93;3.00;;;;;;;28.64;30.35;100331.38;30491252;28;97315;-69
2023/06/25 15:53:43;;;;;;;4.70;2.83;;;;;;;28.33;31.21;100317.09;30491455;28;98714;-69
2023/06/25 16:08:44;;;;;;;4.50;2.60;;;;;;;27.93;31.30;100310.78;30489681;28;110987;-69
2023/06/25 16:23:44;;;;;;;4.90;2.50;;;;;;;27.17;32.35;100299.91;30499952;28;101022;-69
2023/06/25 16:38:44;;;;;;;4.55;2.80;;;;;;;26.78;33.06;100290.44;30507651;28;96720;-69
2023/06/25 16:53:45;;;;;;;4.47;3.03;;;;;;;26.30;33.49;100282.53;30505104;28;108336;-72
2023/06/25 17:08:45;;;;;;;3.85;2.38;;;;;;;25.91;34.08;100282.22;30503299;28;97548;-69
2023/06/25 17:23:45;;;;;;;6.25;2.67;;;;;;;25.41;34.87;100288.09;30503293;28;103112;-70
2023/06/25 17:38:45;;;;;;;6.13;2.80;;;;;;;25.05;35.44;100271.53;30502690;28;107707;-71
2023/06/25 17:53:47;;;;;;;4.05;2.50;;;;;;;24.64;36.48;100266.66;30499974;28;111526;-69
2023/06/25 18:08:47;;;;;;;4.50;2.87;;;;;;;24.22;37.09;100272.03;30499387;28;98822;-72
2023/06/25 18:23:48;;;;;;;8.05;4.30;;;;;;;23.80;38.27;100268.91;30498824;28;101423;-72
2023/06/25 18:38:48;;;;;;;5.80;3.30;;;;;;;23.34;38.84;100279.25;30497934;28;96738;-70
2023/06/25 18:53:49;;;;;;;7.10;3.03;;;;;;;22.86;40.17;100268.00;30496173;28;96722;-72
2023/06/25 19:08:49;;;;;;;;;;;;;;;22.40;41.65;100270.84;30494703;28;96778;-71
2023/06/25 19:23:50;;;;;;;8.40;3.50;;;;;;;21.92;42.50;100275.69;30495406;28;96854;-71
2023/06/25 19:38:50;;;;;;;7.32;3.50;;;;;;;21.45;44.64;100282.09;30492823;28;96750;-71
2023/06/25 19:53:50;;;;;;;8.50;4.60;;;;;;;21.04;46.15;100283.16;30489851;28;96807;-69
2023/06/25 20:08:51;;;;;;;6.63;3.77;;;;;;;20.57;47.27;100282.06;30449900;28;105845;-79
2023/06/25 20:23:51;;;;;;;6.63;3.77;;;;;;;20.37;49.35;100281.59;30360821;28;97535;-70
2023/06/25 20:38:51;;;;;;;10.70;3.83;;;;;;;21.41;49.84;100280.13;30457848;28;97399;-70
2023/06/25 20:53:52;;;;;;;8.03;3.43;;;;;;;21.95;49.71;100285.25;30476835;28;113995;-70
2023/06/25 21:08:52;;;;;;;5.97;3.70;;;;;;;22.18;49.97;100289.72;30485070;28;103573;-70
2023/06/25 21:23:52;;;;;;;15.07;5.00;;;;;;;21.92;50.57;100289.25;30495004;28;113138;-70
2023/06/25 21:38:52;;;;;;;7.53;4.50;;;;;;;21.45;52.12;100292.13;30491712;28;108790;-70
2023/06/25 21:53:53;;;;;;;6.20;4.33;;;;;;;21.14;54.01;100291.47;30493972;28;100326;-70
2023/06/25 22:08:53;;;;;;;10.03;4.93;;;;;;;20.93;55.10;100293.75;30491702;28;97079;-70
2023/06/25 22:23:54;;;;;;;7.10;4.80;;;;;;;20.75;56.31;100283.03;30487700;28;103194;-71
2023/06/25 22:38:55;;;;;;;7.57;4.23;;;;;;;20.52;57.32;100283.84;30499112;28;98474;-71
2023/06/25 22:53:57;;;;;;;6.43;4.70;;;;;;;20.39;58.24;100282.97;30497678;28;97559;-71
2023/06/25 23:08:57;;;;;;;8.63;4.93;;;;;;;20.40;59.11;100275.69;30495291;28;97082;-71
2023/06/25 23:23:58;;;;;;;7.17;5.40;;;;;;;20.15;59.70;100265.91;30477924;28;97801;-71
2023/06/25 23:38:58;;;;;;;6.73;4.60;;;;;;;19.93;60.69;100263.72;30494294;28;96707;-71
2023/06/25 23:53:59;;;;;;;9.43;5.33;;;;;;;19.94;61.26;100253.72;30492947;28;112049;-69
